Tecate, CA (91987)

3:56 AM PST on February 25, 2017 (GMT -0800)
PROTECCION CIVIL BC (TECATE) | | Change Station
Active Advisory: Frost Advisory

Elev 1739 ft 32.57 °N, 116.61 °W | Updated 10 minutes ago

Clear
Clear
38.3 °F
Feels Like 38 °F
N
0.0
Wind Variable Wind from SSE
Gusts 0.0 mph

Today
High -- | Low -- °F
--% Chance of Precip.
Yesterday
High -- | Low -- °F
Precip. -- in
Pressure 30.13 in
Visibility 8.0 miles
Clouds Clear
Windchill 38 °F
Dew Point 30 °F
Humidity 73%
Rainfall 0.00 in
Snow Depth Not available.
6:18 AM 5:41 PM
Waning Crescent, 2% visible
METAR KSDM 251053Z AUTO 12004KT 8SM CLR 05/03 A3012 RMK AO2 SLP201 T00500033 TSNO
Pressure 30.13 in
Visibility 8.0 miles
Clouds Clear
Windchill 38 °F
Dew Point 30 °F
Humidity 73%
Rainfall 0.00 in
Snow Depth Not available.
6:18 AM 5:41 PM
Waning Crescent, 2% visible
METAR KSDM 251053Z AUTO 12004KT 8SM CLR 05/03 A3012 RMK AO2 SLP201 T00500033 TSNO

Get Your Daily Forecast Email!

Thanks for signing up!

Be on the lookout for a verification email in your inbox.

You'll start receiving the daily forecast at 8 AM.

×

10-Day Weather Forecast

Almanac

Astronomy

Feb. 25, 2017 Rise Set
Actual Time
Civil Twilight
Nautical Twilight
Astronomical Twilight
Moon
Length of Visible Light
Length of Day
Tomorrow will be .
, % of the Moon is Illuminated

Today's Extremes

State Highs State Lows

Community

WunderPhotos

Upload Photos

1,962,540 photos uploaded!

WunderBlog® & News

Nearby

Air Quality

  Air Quality AQ Index Pollutant
Not available.

Snow Depth

Station Depth Elevation

Earthquake Activity

City Distance Mag. Time & Date
Minimum magnitude displayed is 2.5.

Coastal Water Temperatures

Place Temperature

Stations

Nearby Weather Stations

Station Location Temp. Windchill Dew Point Humidity Wind Precip. Elev Updated Type
                   

Watches & Warnings

Frost Advisory
Issued: 12:39 PM PST Feb. 24, 2017 – National Weather Service

... Frost advisory in effect from midnight tonight to 8 am PST
Saturday...

The National Weather Service in San Diego has issued a frost
advisory, which is in effect from midnight tonight to 8 am PST
Saturday.

* Location... wind sheltered valleys

* temperature... 33 to 36. Isolated spots 27 to 32.

* Impacts... damage to sensitive vegetation if left uncovered.

Precautionary/preparedness actions...

A frost advisory means that widespread frost is expected.
Precautions should be taken to protect sensitive outdoor plants.
Make sure pets left outdoors have adequate shelter.



Jad